createdAt,value
2022-11-18T00:03:01.695Z,2.40
2022-11-18T00:08:03.652Z,2.40
2022-11-18T00:13:23.925Z,2.50
2022-11-18T00:18:27.162Z,2.30
2022-11-18T00:23:29.242Z,2.30
2022-11-18T00:28:32.023Z,2.30
2022-11-18T00:33:33.768Z,2.20
2022-11-18T00:38:35.807Z,2.20
2022-11-18T00:43:37.999Z,2.20
2022-11-18T00:48:40.622Z,2.20
2022-11-18T00:53:42.978Z,2.20
2022-11-18T00:58:44.699Z,2.30
2022-11-18T01:03:47.021Z,2.20
2022-11-18T01:08:48.841Z,2.20
2022-11-18T01:13:53.987Z,2.10
2022-11-18T01:18:56.025Z,2.00
2022-11-18T01:23:57.714Z,2.00
2022-11-18T01:28:59.414Z,2.00
2022-11-18T01:34:01.186Z,1.90
2022-11-18T01:39:02.936Z,1.80
2022-11-18T01:44:26.139Z,1.80
2022-11-18T01:49:28.122Z,1.80
2022-11-18T01:54:40.668Z,1.80
2022-11-18T01:59:44.091Z,1.80
2022-11-18T02:04:48.457Z,1.80
2022-11-18T02:09:53.043Z,1.70
2022-11-18T02:14:55.125Z,1.70
2022-11-18T02:20:08.715Z,1.70
2022-11-18T02:25:28.671Z,1.70
2022-11-18T02:30:37.888Z,1.60
2022-11-18T02:36:12.100Z,1.70
2022-11-18T02:41:18.402Z,1.60
2022-11-18T02:46:33.697Z,1.70
2022-11-18T02:51:36.921Z,1.70
2022-11-18T02:56:38.932Z,1.50
2022-11-18T03:01:40.719Z,1.40
2022-11-18T03:06:49.241Z,1.40
2022-11-18T03:11:56.542Z,1.40
2022-11-18T03:17:04.413Z,1.30
2022-11-18T03:22:15.777Z,1.30
2022-11-18T03:27:27.417Z,1.20
2022-11-18T03:32:33.316Z,1.20
2022-11-18T03:37:36.852Z,1.20
2022-11-18T03:42:43.488Z,1.10
2022-11-18T03:47:52.583Z,1.10
2022-11-18T03:52:55.227Z,1.00
2022-11-18T03:58:01.239Z,0.90
2022-11-18T04:03:03.807Z,0.90
2022-11-18T04:08:10.793Z,0.90
2022-11-18T04:13:29.900Z,0.80
2022-11-18T04:18:31.730Z,0.70
2022-11-18T04:23:33.420Z,0.70
2022-11-18T04:28:35.125Z,0.70
2022-11-18T04:33:36.871Z,0.70
2022-11-18T04:38:38.562Z,0.60
2022-11-18T04:43:41.450Z,0.50
2022-11-18T04:48:43.140Z,0.50
2022-11-18T04:53:44.847Z,0.50
2022-11-18T04:58:47.286Z,0.60
2022-11-18T05:03:50.725Z,0.60
2022-11-18T05:08:52.897Z,0.50
2022-11-18T05:13:54.662Z,0.50
2022-11-18T05:18:56.415Z,0.50
2022-11-18T05:24:02.043Z,0.50
2022-11-18T05:29:04.200Z,0.50
2022-11-18T05:34:06.026Z,0.50
2022-11-18T05:39:07.897Z,0.50
2022-11-18T05:44:09.594Z,0.50
2022-11-18T05:49:11.303Z,0.50
2022-11-18T05:54:15.691Z,0.50
2022-11-18T05:59:17.913Z,0.60
2022-11-18T06:04:29.265Z,0.50
2022-11-18T06:09:34.781Z,0.40
2022-11-18T06:14:36.441Z,0.40
2022-11-18T06:19:38.566Z,0.50
2022-11-18T06:24:40.784Z,0.60
2022-11-18T06:29:42.485Z,0.40
2022-11-18T06:34:44.198Z,0.50
2022-11-18T06:39:45.950Z,0.50
2022-11-18T06:44:47.643Z,0.40
2022-11-18T06:49:49.373Z,0.40
2022-11-18T06:54:51.097Z,0.40
2022-11-18T06:59:55.505Z,0.30
2022-11-18T07:05:00.804Z,0.30
2022-11-18T07:10:02.981Z,0.40
2022-11-18T07:15:05.129Z,0.30
2022-11-18T07:20:07.471Z,0.40
2022-11-18T07:25:09.728Z,0.40
2022-11-18T07:30:12.197Z,0.40
2022-11-18T07:35:14.417Z,0.40
2022-11-18T07:40:16.186Z,0.30
2022-11-18T07:45:17.887Z,0.30
2022-11-18T07:50:19.549Z,0.40
2022-11-18T07:55:21.277Z,0.60
2022-11-18T08:00:22.989Z,0.50
2022-11-18T08:05:25.385Z,0.50
2022-11-18T08:10:27.593Z,0.50
2022-11-18T08:15:29.448Z,0.60
2022-11-18T08:20:31.256Z,0.40
2022-11-18T08:25:33.111Z,0.50
2022-11-18T08:30:35.109Z,0.60
2022-11-18T08:35:36.993Z,0.40
2022-11-18T08:40:42.061Z,0.30
2022-11-18T08:45:43.782Z,0.30
2022-11-18T08:50:45.450Z,0.30
2022-11-18T08:55:47.154Z,0.00
2022-11-18T09:00:48.950Z,0.20
2022-11-18T09:05:50.908Z,0.10
2022-11-18T09:10:52.800Z,0.10
2022-11-18T09:15:57.653Z,-0.10
2022-11-18T09:21:05.833Z,-0.10
2022-11-18T09:26:13.493Z,0.00
2022-11-18T09:31:17.415Z,0.00
2022-11-18T09:36:24.653Z,0.20
2022-11-18T09:41:38.924Z,0.20
2022-11-18T09:47:31.109Z,0.20
2022-11-18T09:52:49.143Z,0.30
2022-11-18T09:57:53.709Z,0.30
2022-11-18T10:03:20.976Z,0.40
2022-11-18T10:08:39.867Z,0.30
2022-11-18T10:14:02.960Z,0.20
2022-11-18T10:19:04.680Z,0.10
2022-11-18T10:24:09.584Z,0.30
2022-11-18T10:29:11.474Z,0.20
2022-11-18T10:34:18.594Z,0.40
2022-11-18T10:39:20.583Z,0.30
2022-11-18T10:44:42.620Z,0.40
2022-11-18T10:49:44.428Z,0.30
2022-11-18T10:55:04.627Z,0.30
2022-11-18T11:00:09.066Z,0.40
2022-11-18T11:05:21.519Z,0.40
2022-11-18T11:10:24.159Z,0.40
2022-11-18T11:15:48.154Z,0.60
2022-11-18T11:20:52.585Z,0.40
2022-11-18T11:32:27.069Z,0.50
2022-11-18T11:37:36.114Z,0.60
2022-11-18T11:42:59.412Z,0.70
2022-11-18T11:48:12.922Z,0.70
2022-11-18T11:53:29.694Z,0.60
2022-11-18T11:58:40.249Z,0.70
2022-11-18T12:03:52.005Z,0.90
2022-11-18T12:09:18.887Z,1.00
2022-11-18T12:14:47.618Z,0.90
2022-11-18T12:19:49.293Z,1.40
2022-11-18T12:24:50.972Z,1.30
2022-11-18T12:29:56.687Z,1.20
2022-11-18T12:35:13.696Z,1.40
2022-11-18T12:40:35.405Z,1.90
2022-11-18T12:45:48.893Z,2.00
2022-11-18T12:51:10.377Z,2.20
2022-11-18T12:56:21.360Z,1.70
2022-11-18T13:01:36.994Z,1.30
2022-11-18T13:06:39.164Z,1.60
2022-11-18T13:11:51.583Z,1.80
2022-11-18T13:17:11.730Z,1.80
2022-11-18T13:22:36.871Z,1.60
2022-11-18T13:28:03.745Z,1.60
2022-11-18T13:33:11.451Z,1.50
2022-11-18T13:38:27.724Z,1.40
2022-11-18T13:43:36.894Z,1.30
2022-11-18T13:48:41.513Z,1.30
2022-11-18T13:53:44.761Z,1.10
2022-11-18T14:04:26.806Z,0.80
2022-11-18T14:09:30.754Z,0.80
2022-11-18T14:14:38.263Z,0.70
2022-11-18T14:19:40.933Z,0.60
2022-11-18T14:24:43.447Z,0.60
2022-11-18T14:29:51.147Z,0.60
2022-11-18T14:35:02.055Z,0.60
2022-11-18T14:40:03.947Z,0.50
2022-11-18T14:45:05.993Z,0.50
2022-11-18T14:50:14.876Z,0.50
2022-11-18T14:55:16.828Z,0.40
2022-11-18T15:00:19.573Z,0.40
2022-11-18T15:05:21.280Z,0.40
2022-11-18T15:10:23.008Z,0.30
2022-11-18T15:15:24.941Z,0.20
2022-11-18T15:20:26.713Z,0.20
2022-11-18T15:25:28.401Z,0.20
2022-11-18T15:30:30.083Z,0.10
2022-11-18T15:35:31.824Z,0.10
2022-11-18T15:40:33.846Z,0.00
2022-11-18T15:45:35.632Z,0.00
2022-11-18T15:50:37.311Z,-0.10
2022-11-18T15:55:39.025Z,-0.10
2022-11-18T16:00:40.904Z,-0.20
2022-11-18T16:05:42.669Z,-0.20
2022-11-18T16:11:03.160Z,-0.20
2022-11-18T16:16:05.286Z,-0.30
2022-11-18T16:21:07.096Z,-0.30
2022-11-18T16:26:08.817Z,-0.30
2022-11-18T16:31:29.071Z,-0.30
2022-11-18T16:36:31.101Z,-0.40
2022-11-18T16:41:32.992Z,-0.40
2022-11-18T16:46:36.951Z,-0.60
2022-11-18T16:51:42.475Z,-0.60
2022-11-18T16:56:45.031Z,-0.60
2022-11-18T17:01:46.820Z,-0.60
2022-11-18T17:06:48.681Z,-0.50
2022-11-18T17:11:52.252Z,-0.60
2022-11-18T17:16:54.037Z,-0.60
2022-11-18T17:21:55.866Z,-0.60
2022-11-18T17:26:57.711Z,-0.60
2022-11-18T17:31:59.846Z,-0.60
2022-11-18T17:37:06.562Z,-0.60
2022-11-18T17:42:14.945Z,-0.60
2022-11-18T17:47:17.186Z,-0.70
2022-11-18T17:52:19.276Z,-0.80
2022-11-18T17:57:21.249Z,-0.80
2022-11-18T18:02:23.112Z,-0.80
2022-11-18T18:07:24.977Z,-0.80
2022-11-18T18:12:45.180Z,-0.90
2022-11-18T18:17:49.022Z,-0.90
2022-11-18T18:22:51.028Z,-1.00
2022-11-18T18:27:52.754Z,-1.00
2022-11-18T18:32:54.449Z,-0.90
2022-11-18T18:37:58.335Z,-0.90
2022-11-18T18:43:00.104Z,-0.90
2022-11-18T18:48:06.152Z,-1.00
2022-11-18T18:53:08.021Z,-1.00
2022-11-18T18:58:10.266Z,-1.00
2022-11-18T19:03:12.085Z,-1.10
2022-11-18T19:08:13.864Z,-1.10
2022-11-18T19:13:15.620Z,-1.10
2022-11-18T19:18:19.278Z,-1.20
2022-11-18T19:23:21.253Z,-1.20
2022-11-18T19:28:23.083Z,-1.20
2022-11-18T19:33:25.177Z,-1.20
2022-11-18T19:38:26.931Z,-1.20
2022-11-18T19:43:29.819Z,-1.30
2022-11-18T19:48:32.236Z,-1.30
2022-11-18T19:53:35.381Z,-1.30
2022-11-18T19:58:39.648Z,-1.30
2022-11-18T20:03:46.687Z,-1.30
2022-11-18T20:08:49.037Z,-1.30
2022-11-18T20:13:51.397Z,-1.40
2022-11-18T20:18:56.624Z,-1.40
2022-11-18T20:24:04.441Z,-1.40
2022-11-18T20:29:07.946Z,-1.40
2022-11-18T20:34:14.147Z,-1.50
2022-11-18T20:39:16.638Z,-1.60
2022-11-18T20:44:18.575Z,-1.60
2022-11-18T20:49:20.772Z,-1.60
2022-11-18T20:54:22.909Z,-1.60
2022-11-18T20:59:24.670Z,-1.70
2022-11-18T21:04:26.381Z,-1.70
2022-11-18T21:09:32.890Z,-1.70
2022-11-18T21:14:34.638Z,-1.70
2022-11-18T21:19:36.318Z,-1.70
2022-11-18T21:24:38.170Z,-1.70
2022-11-18T21:29:41.757Z,-1.70
2022-11-18T21:34:43.478Z,-1.70
2022-11-18T21:39:46.406Z,-1.80
2022-11-18T21:44:49.249Z,-1.90
2022-11-18T21:49:50.968Z,-1.90
2022-11-18T21:54:52.698Z,-2.00
2022-11-18T21:59:55.669Z,-2.00
2022-11-18T22:04:58.167Z,-2.00
2022-11-18T22:09:59.963Z,-2.10
2022-11-18T22:15:01.669Z,-2.00
2022-11-18T22:20:03.800Z,-2.00
2022-11-18T22:25:06.022Z,-2.00
2022-11-18T22:30:08.548Z,-2.10
2022-11-18T22:35:10.263Z,-2.20
2022-11-18T22:40:12.524Z,-2.30
2022-11-18T22:45:15.731Z,-2.30
2022-11-18T22:50:17.649Z,-2.30
2022-11-18T22:55:19.477Z,-2.30
2022-11-18T23:00:21.293Z,-2.30
2022-11-18T23:05:23.005Z,-2.30
2022-11-18T23:10:26.017Z,-2.30
2022-11-18T23:15:27.964Z,-2.30
2022-11-18T23:20:30.032Z,-2.30
2022-11-18T23:25:31.997Z,-2.40
2022-11-18T23:30:33.990Z,-2.40
2022-11-18T23:35:35.700Z,-2.40
2022-11-18T23:40:37.962Z,-2.40
2022-11-18T23:45:41.616Z,-2.50
2022-11-18T23:50:52.615Z,-2.50
2022-11-18T23:55:55.617Z,-2.50
